Impacts TAF Board INFO
FOR SITUATIONAL AWARENESS. NOT TO BE USED FOR FLIGHT PLANNING PURPOSES.
IDs:

KSAN - San Diego Intl Arpt, CA, US

Issued at 1726 UTC 18 Nov 2017
Updated at 1752 UTC 18 Nov 2017
Potential Impact None Slight Moderate High
Time1651Z 18/18Z 18/19Z 18/20Z 18/21Z 18/22Z 18/23Z 19/00Z 19/01Z 19/02Z 19/03Z 19/04Z 19/05Z 19/06Z>>
Type OBS PRVL PRVL PRVL PRVL PRVL PRVL PRVL PRVL PRVL PRVL PRVL PRVL PRVL
VIS 10 >6 >6 >6 >6 >6 >6 >6 >6 >6 >6 >6 >6 >6
CIG -- -- -- -- -- -- -- -- -- -- -- -- -- --
Cover FEW FEW FEW SKC SKC SKC SKC SKC SKC FEW FEW FEW FEW FEW
FltCat VFR VFR VFR VFR VFR VFR VFR VFR VFR VFR VFR VFR VFR VFR
WX -- -- -- -- -- -- -- -- -- -- -- -- -- --
WDir 310 VRB VRB 300 300 300 300 300 300 VRB VRB VRB VRB VRB
WSpd 4 6 6 8 8 8 8 8 8 4 4 4 4 4
WGst -- -- -- -- -- -- -- -- -- -- -- -- -- --

Raw TAF
KSAN 181726Z 1818/1924 VRB06KT P6SM FEW010
  FM182000 30008KT P6SM SKC
  FM190200 VRB04KT P6SM FEW005
  FM190800 VRB04KT P6SM VCFG SCT004
  FM191600 VRB04KT P6SM FEW005
  FM192000 30008KT P6SM SKC


Raw METAR
KSAN 181651Z 31004KT 10SM FEW010 FEW020 18/13 A3017 RMK AO2 SLP214 T01830133
KSAN 181551Z 00000KT 10SM SCT010 16/11 A3016 RMK AO2 SLP211 T01560106
KSAN 181451Z 36005KT 10SM SCT010 14/11 A3014 RMK AO2 SLP205 T01440106 53005
KSAN 181439Z 00000KT 10SM SCT010 14/11 A3013 RMK AO2 T01390106

METAR Board
Radar Display
Forecast Discussion

FOR SITUATIONAL AWARENESS. NOT TO BE USED FOR FLIGHT PLANNING PURPOSES.